Time;durP1;ratioP1;P1;durP2;ratioP2;P2;SDS_P1;SDS_P2;PMS_P1;PMS_P2;Temp;Humidity;BMP_temperature;BMP_pressure;BME280_temperature;BME280_humidity;BME280_pressure;Samples;Min_cycle;Max_cycle;Signal;HPM_P1;HPM_P2
2021/01/18 00:02:01;;;;;;;458.92;133.95;;;;;;;-17.91;65.08;100966.61;1722156;83;25877;-55
2021/01/18 00:04:28;;;;;;;;;;;;;;;-17.93;64.98;100964.61;1724655;82;25842;-61
2021/01/18 00:06:54;;;;;;;436.38;131.03;;;;;;;-17.99;64.92;100962.00;1713886;82;40227;-60
2021/01/18 00:09:21;;;;;;;483.48;133.65;;;;;;;-18.00;64.88;100969.37;1709589;83;26738;-63
2021/01/18 00:11:48;;;;;;;479.55;137.12;;;;;;;-18.01;64.92;100967.75;1709462;83;26537;-63
2021/01/18 00:14:17;;;;;;;379.43;114.82;;;;;;;-18.04;64.93;100969.69;1709461;83;25831;-56
2021/01/18 00:16:44;;;;;;;364.42;106.27;;;;;;;-18.07;64.87;100971.56;1709507;83;25680;-60
2021/01/18 00:19:11;;;;;;;322.90;98.92;;;;;;;-18.14;64.98;100969.05;1709710;83;25640;-56
2021/01/18 00:21:46;;;;;;;310.40;97.25;;;;;;;-18.15;64.72;100976.43;1718799;83;26744;-64
2021/01/18 00:24:13;;;;;;;321.07;93.17;;;;;;;-18.18;64.60;100975.81;1723756;83;25787;-59
2021/01/18 00:26:40;;;;;;;282.95;90.72;;;;;;;-18.20;64.66;100976.40;1723936;83;25766;-60
2021/01/18 00:29:07;;;;;;;316.70;98.35;;;;;;;-18.25;64.55;100973.67;1723628;82;25714;-50
2021/01/18 00:31:33;;;;;;;347.23;102.12;;;;;;;-18.30;64.50;100974.91;1723889;83;25837;-54
2021/01/18 00:34:00;;;;;;;345.27;99.77;;;;;;;-18.34;64.42;100976.06;1723861;83;25779;-47
2021/01/18 00:36:27;;;;;;;348.68;104.87;;;;;;;-18.36;64.54;100976.64;1726430;81;25983;-58
2021/01/18 00:38:54;;;;;;;341.02;100.90;;;;;;;-18.40;64.44;100972.59;1729240;82;25597;-55
2021/01/18 00:41:21;;;;;;;349.37;98.72;;;;;;;-18.47;64.45;100978.19;1723198;81;25691;-57
2021/01/18 00:43:47;;;;;;;346.70;102.47;;;;;;;-18.52;64.40;100977.68;1733982;82;25752;-62
2021/01/18 00:46:14;;;;;;;320.45;97.47;;;;;;;-18.56;64.45;100976.22;1733637;82;26031;-50
2021/01/18 00:48:41;;;;;;;344.20;102.67;;;;;;;-18.58;64.35;100975.50;1707156;82;25768;-51
2021/01/18 00:51:08;;;;;;;340.12;101.25;;;;;;;-18.61;64.45;100967.95;1734079;82;25819;-59
2021/01/18 00:53:34;;;;;;;327.48;99.50;;;;;;;-18.65;64.25;100967.81;1733985;81;25828;-57
2021/01/18 00:56:02;;;;;;;310.20;92.42;;;;;;;-18.68;64.20;100965.44;1734021;82;25686;-61
2021/01/18 00:58:30;;;;;;;226.27;75.35;;;;;;;-18.71;64.23;100974.19;1730143;82;25786;-62
2021/01/18 01:00:57;;;;;;;288.87;92.20;;;;;;;-18.75;64.13;100971.47;1733786;81;25613;-57
2021/01/18 01:03:27;;;;;;;270.48;80.53;;;;;;;-18.78;64.22;100967.80;1733382;81;25835;-57
2021/01/18 01:05:54;;;;;;;255.90;77.10;;;;;;;-18.82;64.30;100967.18;1733507;81;25632;-56
2021/01/18 01:08:20;;;;;;;219.07;76.53;;;;;;;-18.85;64.23;100972.57;1728484;81;30624;-46
2021/01/18 01:10:47;;;;;;;230.77;76.85;;;;;;;-18.87;64.31;100974.91;1731005;82;28094;-50
2021/01/18 01:13:14;;;;;;;239.68;75.00;;;;;;;-18.89;64.29;100978.06;1729877;82;25690;-54
2021/01/18 01:15:41;;;;;;;282.12;85.60;;;;;;;-18.92;64.42;100970.05;1731752;81;26503;-58
2021/01/18 01:18:08;;;;;;;245.45;74.95;;;;;;;-18.95;64.45;100971.53;1731374;82;25752;-62
2021/01/18 01:20:35;;;;;;;236.90;81.28;;;;;;;-18.95;64.59;100970.23;1730888;81;26270;-51
2021/01/18 01:23:02;;;;;;;256.27;78.67;;;;;;;-19.00;64.72;100956.82;1731757;81;25843;-54
2021/01/18 01:25:29;;;;;;;250.15;77.25;;;;;;;-18.96;64.62;100962.16;1731201;81;25825;-60
2021/01/18 01:27:56;;;;;;;213.18;68.52;;;;;;;-18.98;64.66;100961.88;1731269;81;25734;-50
2021/01/18 01:30:25;;;;;;;224.22;69.42;;;;;;;-18.98;64.70;100959.30;1731659;81;25746;-56
2021/01/18 01:32:54;;;;;;;223.03;69.42;;;;;;;-18.98;64.72;100957.57;1732747;82;25369;-53
2021/01/18 01:35:27;;;;;;;198.60;63.83;;;;;;;-18.97;64.68;100950.17;1732245;82;25796;-50
2021/01/18 01:37:57;;;;;;;190.53;63.60;;;;;;;-18.98;64.55;100952.85;1732034;82;26339;-57
2021/01/18 01:40:24;;;;;;;193.70;68.25;;;;;;;-19.01;64.46;100940.53;1732862;82;26013;-52
2021/01/18 01:42:51;;;;;;;199.57;64.07;;;;;;;-19.02;64.45;100940.16;1732655;82;25680;-58
2021/01/18 01:45:20;;;;;;;212.48;66.70;;;;;;;-19.04;64.46;100938.14;1732724;82;25830;-57
2021/01/18 01:47:53;;;;;;;204.55;66.17;;;;;;;-19.04;64.35;100942.48;1732847;82;26659;-58
2021/01/18 01:50:24;;;;;;;223.03;69.22;;;;;;;-19.06;64.39;100938.72;1733419;82;25855;-58
2021/01/18 01:52:56;;;;;;;202.97;64.72;;;;;;;-19.07;64.42;100935.77;1733672;82;25673;-47
2021/01/18 01:55:28;;;;;;;195.18;65.52;;;;;;;-19.06;64.39;100936.61;1733716;82;25682;-59
2021/01/18 01:57:57;;;;;;;186.32;63.02;;;;;;;-19.07;64.26;100940.11;1733760;82;25631;-59
2021/01/18 02:00:36;;;;;;;195.80;60.05;;;;;;;-19.09;64.16;100937.63;1733835;81;26683;-59
2021/01/18 02:02:55;;;;;;;207.55;59.15;;;;;;;-19.12;64.25;100926.22;1732009;82;25651;-59
2021/01/18 02:05:22;;;;;;;183.80;58.10;;;;;;;-19.13;64.35;100936.19;1733614;82;25725;-58
2021/01/18 02:07:49;;;;;;;193.25;59.83;;;;;;;-19.13;64.29;100936.62;1733684;82;25747;-60
2021/01/18 02:10:15;;;;;;;169.62;58.73;;;;;;;-19.19;64.19;100941.27;1733717;82;25628;-58
2021/01/18 02:12:42;;;;;;;178.72;55.45;;;;;;;-19.23;64.19;100941.12;1733614;82;26666;-54
2021/01/18 02:15:18;;;;;;;165.65;56.50;;;;;;;-19.27;64.16;100943.55;1733652;82;25702;-58
2021/01/18 02:18:19;;;;;;;123.33;43.90;;;;;;;-19.30;64.08;100941.60;1733694;82;25683;-58
2021/01/18 02:21:29;;;;;;;193.57;58.58;;;;;;;-19.32;64.13;100942.17;1733617;82;25611;-60
2021/01/18 02:24:39;;;;;;;182.17;56.83;;;;;;;-19.32;64.15;100938.30;1733863;82;25655;-61
2021/01/18 02:27:40;;;;;;;177.30;54.73;;;;;;;-19.34;64.14;100933.72;1700047;82;26194;-55
2021/01/18 02:30:48;;;;;;;178.82;55.98;;;;;;;-19.38;64.19;100931.80;1733893;82;25684;-53
2021/01/18 02:33:40;;;;;;;165.47;57.27;;;;;;;-19.39;64.15;100936.14;1733947;82;25588;-54
2021/01/18 02:36:24;;;;;;;126.27;44.90;;;;;;;-19.38;64.31;100929.23;1733692;82;25605;-60
2021/01/18 02:39:22;;;;;;;161.20;58.20;;;;;;;-19.43;64.24;100928.70;1733988;82;25664;-60
2021/01/18 02:42:05;;;;;;;164.15;54.73;;;;;;;-19.47;64.06;100928.08;1734053;82;27153;-60
2021/01/18 02:44:35;;;;;;;159.72;52.55;;;;;;;-19.49;63.99;100929.09;1733812;82;25647;-60
2021/01/18 02:47:04;;;;;;;149.70;52.23;;;;;;;-19.55;64.02;100921.77;1733819;82;25601;-59
2021/01/18 02:49:32;;;;;;;134.55;41.63;;;;;;;-19.58;63.86;100921.48;1733923;82;32399;-60
2021/01/18 02:52:12;;;;;;;123.50;44.20;;;;;;;-19.60;63.96;100922.05;1734154;82;25625;-60
2021/01/18 02:54:39;;;;;;;167.47;52.23;;;;;;;-19.61;63.96;100922.53;1733829;82;25913;-56
2021/01/18 02:57:12;;;;;;;164.43;49.70;;;;;;;-19.59;64.36;100927.59;1733527;82;25623;-47
2021/01/18 02:59:39;;;;;;;154.87;50.35;;;;;;;-19.61;64.64;100936.70;1733843;82;25605;-59
2021/01/18 03:02:38;;;;;;;141.40;48.58;;;;;;;-19.61;64.99;100930.70;1733794;82;25696;-51
2021/01/18 03:05:16;;;;;;;134.45;41.53;;;;;;;-19.59;65.25;100941.76;1734121;82;25683;-60
2021/01/18 03:07:57;;;;;;;133.20;45.90;;;;;;;-19.55;65.25;100941.91;1733859;82;25726;-60
2021/01/18 03:10:37;;;;;;;157.47;49.95;;;;;;;-19.53;64.98;100946.50;1704172;82;25778;-57
2021/01/18 03:13:24;;;;;;;148.40;51.35;;;;;;;-19.56;65.12;100946.69;1733863;82;25662;-47
2021/01/18 03:15:58;;;;;;;138.68;47.62;;;;;;;-19.53;65.21;100946.97;1733672;82;26059;-55
2021/01/18 03:18:28;;;;;;;109.80;44.20;;;;;;;-19.55;65.27;100940.62;1733410;82;25761;-60
2021/01/18 03:20:56;;;;;;;145.60;47.98;;;;;;;-19.54;65.18;100941.44;1733784;82;25774;-59
2021/01/18 03:23:23;;;;;;;121.60;41.92;;;;;;;-19.52;65.01;100948.16;1733878;82;25581;-59
2021/01/18 03:25:55;;;;;;;134.70;43.60;;;;;;;-19.53;64.96;100952.94;1733889;82;25763;-61
2021/01/18 03:28:24;;;;;;;138.95;45.35;;;;;;;-19.53;64.83;100947.79;1733762;82;25675;-57
2021/01/18 03:30:52;;;;;;;113.52;37.90;;;;;;;-19.52;64.76;100940.91;1733974;82;25677;-60
2021/01/18 03:33:24;;;;;;;144.87;44.48;;;;;;;-19.51;64.78;100943.36;1733797;82;26687;-59
2021/01/18 03:35:47;;;;;;;137.65;46.55;;;;;;;-19.48;64.75;100947.03;1733110;82;25652;-59
2021/01/18 03:38:14;;;;;;;117.82;42.13;;;;;;;-19.48;64.62;100943.64;1724384;82;25672;-55
2021/01/18 03:40:41;;;;;;;148.43;45.50;;;;;;;-19.49;64.52;100938.95;1723227;82;25680;-59
2021/01/18 03:43:09;;;;;;;162.90;47.95;;;;;;;-19.52;64.41;100934.46;1723409;83;25621;-59
2021/01/18 03:45:38;;;;;;;107.10;41.63;;;;;;;-19.53;64.36;100941.34;1723422;83;25903;-55
2021/01/18 03:48:08;;;;;;;150.50;48.83;;;;;;;-19.54;64.31;100933.71;1723269;83;25669;-59
2021/01/18 03:50:37;;;;;;;139.37;48.83;;;;;;;-19.55;64.34;100934.19;1723153;83;26206;-56
2021/01/18 03:53:05;;;;;;;133.20;43.02;;;;;;;-19.57;64.26;100936.04;1723552;83;25645;-47
2021/01/18 03:55:32;;;;;;;141.80;49.83;;;;;;;-19.61;64.26;100933.28;1723386;83;25621;-58
2021/01/18 03:57:59;;;;;;;137.37;48.78;;;;;;;-19.68;64.20;100931.55;1723326;83;27152;-59
2021/01/18 04:00:32;;;;;;;138.55;48.23;;;;;;;-19.72;64.14;100924.14;1723342;83;25664;-59
2021/01/18 04:03:00;;;;;;;111.75;39.50;;;;;;;-19.77;64.10;100925.74;1723388;83;25658;-59
2021/01/18 04:05:27;;;;;;;152.50;45.80;;;;;;;-19.78;64.25;100931.36;1723333;83;25657;-48
2021/01/18 04:07:56;;;;;;;157.52;48.15;;;;;;;-19.78;64.19;100920.21;1722987;83;26267;-50
2021/01/18 04:10:26;;;;;;;120.05;42.88;;;;;;;-19.76;64.26;100923.54;1723529;82;25731;-60
2021/01/18 04:12:54;;;;;;;163.00;52.30;;;;;;;-19.78;64.14;100924.92;1723405;83;25923;-58
2021/01/18 04:15:23;;;;;;;146.28;50.98;;;;;;;-19.77;64.09;100923.98;1723369;83;26290;-60
2021/01/18 04:17:54;;;;;;;156.72;51.45;;;;;;;-19.80;63.99;100920.34;1723350;83;25708;-61
2021/01/18 04:20:22;;;;;;;163.87;53.90;;;;;;;-19.81;64.03;100922.53;1723514;83;26284;-51
2021/01/18 04:22:58;;;;;;;176.47;57.40;;;;;;;-19.79;64.12;100916.00;1723277;83;25838;-60
2021/01/18 04:25:27;;;;;;;171.28;55.28;;;;;;;-19.81;64.05;100915.28;1723291;83;25634;-59
2021/01/18 04:27:58;;;;;;;172.22;53.78;;;;;;;-19.87;63.83;100911.32;1723453;83;25716;-59
2021/01/18 04:30:28;;;;;;;187.20;56.65;;;;;;;-19.88;63.70;100910.12;1723098;83;25713;-58
2021/01/18 04:32:58;;;;;;;164.65;49.77;;;;;;;-19.92;63.75;100912.55;1723430;83;25672;-56
2021/01/18 04:35:27;;;;;;;155.12;53.50;;;;;;;-19.95;63.90;100910.53;1723262;83;25726;-59
2021/01/18 04:37:55;;;;;;;141.77;43.15;;;;;;;-19.95;63.98;100912.27;1723247;83;25715;-57
2021/01/18 04:40:24;;;;;;;163.00;55.08;;;;;;;-19.93;64.18;100908.30;1723244;83;25605;-58
2021/01/18 04:42:52;;;;;;;160.60;53.45;;;;;;;-19.96;64.13;100905.48;1723450;82;25679;-56
2021/01/18 04:45:22;;;;;;;159.65;52.00;;;;;;;-20.00;64.02;100906.58;1723451;82;25574;-61
2021/01/18 04:47:52;;;;;;;168.50;53.40;;;;;;;-20.02;64.11;100895.11;1723299;83;26748;-60
2021/01/18 04:50:22;;;;;;;155.27;51.50;;;;;;;-20.02;64.16;100893.83;1723244;83;25755;-62
2021/01/18 04:52:57;;;;;;;151.72;52.60;;;;;;;-20.00;64.29;100889.40;1723358;83;25683;-55
2021/01/18 04:55:35;;;;;;;125.15;42.62;;;;;;;-20.02;64.06;100887.39;1723207;83;25681;-56
2021/01/18 04:58:14;;;;;;;144.65;47.73;;;;;;;-20.03;64.02;100887.48;1723311;83;25791;-58
2021/01/18 05:00:55;;;;;;;148.62;41.88;;;;;;;-20.04;64.01;100890.97;1723344;83;25995;-59
2021/01/18 05:03:26;;;;;;;118.85;45.50;;;;;;;-20.08;64.01;100882.61;1723286;83;25931;-56
2021/01/18 05:06:14;;;;;;;147.32;48.63;;;;;;;-20.11;63.80;100889.70;1723351;83;25680;-52
2021/01/18 05:09:15;;;;;;;115.08;39.30;;;;;;;-20.15;63.69;100892.47;1723411;83;25672;-51
2021/01/18 05:11:42;;;;;;;108.63;41.75;;;;;;;-20.20;63.56;100895.79;1723047;83;25640;-57
2021/01/18 05:14:09;;;;;;;143.25;48.05;;;;;;;-20.24;63.86;100896.91;1723270;83;26175;-41
2021/01/18 05:16:37;;;;;;;161.88;52.60;;;;;;;-20.24;63.88;100894.78;1723220;83;25782;-60
2021/01/18 05:19:12;;;;;;;157.72;49.90;;;;;;;-20.25;63.82;100899.58;1723567;83;26334;-60
2021/01/18 05:21:41;;;;;;;151.60;52.80;;;;;;;-20.26;63.65;100904.36;1723319;83;25686;-52
2021/01/18 05:24:10;;;;;;;168.32;54.27;;;;;;;-20.28;63.66;100909.59;1723429;83;25615;-60
2021/01/18 05:26:37;;;;;;;171.15;55.70;;;;;;;-20.32;63.67;100912.82;1723463;83;25936;-46
2021/01/18 05:29:04;;;;;;;174.95;55.12;;;;;;;-20.37;63.54;100912.75;1723258;83;25588;-60
2021/01/18 05:31:37;;;;;;;125.60;43.58;;;;;;;-20.41;63.66;100912.55;1723075;83;25627;-60
2021/01/18 05:34:15;;;;;;;157.20;53.42;;;;;;;-20.42;63.71;100918.16;1723127;83;25703;-53
2021/01/18 05:36:48;;;;;;;160.57;54.90;;;;;;;-20.41;63.71;100919.83;1723372;83;25616;-57
2021/01/18 05:39:26;;;;;;;175.22;58.50;;;;;;;-20.40;63.81;100912.93;1736300;82;25745;-51
2021/01/18 05:41:54;;;;;;;206.53;65.60;;;;;;;-20.41;63.78;100909.54;1735581;82;25609;-57
2021/01/18 05:44:36;;;;;;;177.35;56.42;;;;;;;-20.43;63.82;100902.81;1736811;81;25611;-55
2021/01/18 05:47:11;;;;;;;196.25;63.85;;;;;;;-20.46;63.80;100892.27;1736554;82;25597;-59
2021/01/18 05:49:49;;;;;;;156.78;51.63;;;;;;;-20.46;63.67;100897.41;1736629;82;25719;-57
2021/01/18 05:52:30;;;;;;;215.05;71.37;;;;;;;-20.48;63.63;100899.70;1736759;82;25724;-59
2021/01/18 05:55:19;;;;;;;209.55;66.92;;;;;;;-20.48;63.53;100894.08;1736441;82;25602;-56
2021/01/18 05:58:01;;;;;;;;;;;;;;;-20.46;63.53;100897.41;1739330;82;25703;-48
2021/01/18 06:00:31;;;;;;;173.43;62.73;;;;;;;-20.52;63.59;100887.48;1736765;82;25643;-52
2021/01/18 06:03:07;;;;;;;217.57;63.02;;;;;;;-20.59;63.54;100884.92;1736769;82;25615;-59
2021/01/18 06:05:36;;;;;;;208.20;60.50;;;;;;;-20.60;63.46;100880.22;1735804;82;25728;-46
2021/01/18 06:08:18;;;;;;;180.30;57.00;;;;;;;-20.59;63.53;100880.59;1736617;82;25595;-59
2021/01/18 06:10:47;;;;;;;206.57;61.63;;;;;;;-20.61;63.38;100884.20;1736781;82;25925;-58
2021/01/18 06:13:28;;;;;;;172.53;58.65;;;;;;;-20.61;63.43;100883.73;1736622;82;25704;-59
2021/01/18 06:16:11;;;;;;;190.77;65.00;;;;;;;-20.59;63.25;100892.64;1736793;82;25649;-58
2021/01/18 06:18:42;;;;;;;225.47;68.17;;;;;;;-20.63;63.23;100891.19;1736771;82;26218;-58
2021/01/18 06:21:12;;;;;;;167.32;54.35;;;;;;;-20.66;63.15;100893.50;1736733;82;25718;-59
2021/01/18 06:23:40;;;;;;;195.47;57.95;;;;;;;-20.69;63.17;100896.25;1736590;82;25695;-59
2021/01/18 06:26:07;;;;;;;106.45;42.00;;;;;;;-20.73;63.15;100899.48;1736815;82;25660;-58
2021/01/18 06:28:37;;;;;;;160.72;53.90;;;;;;;-20.75;63.18;100907.75;1736876;82;25683;-55
2021/01/18 06:31:11;;;;;;;169.85;60.78;;;;;;;-20.75;63.20;100905.62;1736636;82;25773;-59
2021/01/18 06:33:48;;;;;;;168.43;53.20;;;;;;;-20.76;63.38;100911.70;1736679;82;25675;-59
2021/01/18 06:36:21;;;;;;;190.45;61.13;;;;;;;-20.83;63.28;100915.56;1736783;82;25631;-48
2021/01/18 06:39:03;;;;;;;187.68;59.15;;;;;;;-20.87;63.45;100916.17;1724117;82;25667;-52
2021/01/18 06:41:37;;;;;;;153.78;53.02;;;;;;;-20.87;63.58;100918.74;1696039;82;25722;-56
2021/01/18 06:44:06;;;;;;;205.62;67.05;;;;;;;-20.91;63.60;100917.28;1702640;82;25912;-56
2021/01/18 06:46:37;;;;;;;209.92;67.62;;;;;;;-20.91;63.66;100916.00;1679099;84;25815;-56
2021/01/18 06:49:05;;;;;;;181.07;53.63;;;;;;;-20.87;63.81;100925.64;1731007;82;25800;-57
2021/01/18 06:51:33;;;;;;;178.27;56.55;;;;;;;-20.85;63.88;100933.65;1698485;84;25631;-56
2021/01/18 06:54:01;;;;;;;174.32;56.02;;;;;;;-20.81;64.19;100938.15;1730873;82;25701;-57
2021/01/18 06:57:09;;;;;;;177.47;61.13;;;;;;;-20.75;64.32;100942.47;1698755;84;25710;-55
2021/01/18 06:59:51;;;;;;;229.57;69.00;;;;;;;-20.71;64.49;100945.69;1697588;82;25779;-56
2021/01/18 07:02:29;;;;;;;174.97;60.10;;;;;;;-20.58;64.66;100948.30;1839205;76;25768;-46
2021/01/18 07:05:09;;;;;;;212.75;64.07;;;;;;;-20.57;64.75;100946.11;1804665;79;25643;-51
2021/01/18 07:07:39;;;;;;;230.98;74.97;;;;;;;-20.48;64.55;100944.26;1804584;79;25673;-54
2021/01/18 07:10:10;;;;;;;226.82;78.85;;;;;;;-20.40;64.58;100956.67;1804664;79;25552;-53
2021/01/18 07:12:37;;;;;;;227.85;75.67;;;;;;;-20.37;64.43;100963.75;1804666;79;25603;-56
2021/01/18 07:15:10;;;;;;;186.65;63.20;;;;;;;-20.34;64.35;100967.42;1804667;79;25703;-52
2021/01/18 07:17:55;;;;;;;195.07;65.70;;;;;;;-20.30;64.52;100960.34;1810754;77;25670;-56
2021/01/18 07:20:28;;;;;;;225.25;80.77;;;;;;;-20.25;64.73;100963.94;1815821;78;25733;-56
2021/01/18 07:23:21;;;;;;;229.90;78.40;;;;;;;-20.18;64.89;100955.73;1815796;79;25716;-58
2021/01/18 07:25:53;;;;;;;230.18;83.90;;;;;;;-20.09;64.96;100952.22;1813086;79;25988;-51
2021/01/18 07:28:20;;;;;;;361.10;118.80;;;;;;;-19.96;65.08;100955.70;1811409;79;25661;-55
2021/01/18 07:30:49;;;;;;;328.98;120.05;;;;;;;-19.88;65.14;100951.34;1815201;79;25610;-55
2021/01/18 07:33:17;;;;;;;338.05;126.33;;;;;;;-19.85;65.19;100950.71;1815344;79;25693;-53
2021/01/18 07:35:47;;;;;;;319.70;111.12;;;;;;;-19.78;65.27;100959.70;1815016;79;26165;-49
2021/01/18 07:38:18;;;;;;;314.60;107.60;;;;;;;-19.69;65.64;100960.84;1815299;78;25644;-54
2021/01/18 07:41:10;;;;;;;271.50;95.17;;;;;;;-19.57;65.75;100949.74;1814748;79;26263;-58
2021/01/18 07:43:48;;;;;;;265.37;91.67;;;;;;;-19.44;65.96;100945.92;1816072;77;25609;-55
2021/01/18 07:46:32;;;;;;;288.80;98.12;;;;;;;-19.28;66.03;100950.09;1815730;79;25689;-55
2021/01/18 07:49:17;;;;;;;287.95;92.05;;;;;;;-19.13;66.26;100941.78;1815648;79;25706;-55
2021/01/18 07:51:44;;;;;;;286.18;89.55;;;;;;;-18.95;66.38;100950.08;1815860;79;25586;-55
2021/01/18 07:54:32;;;;;;;273.70;92.57;;;;;;;-18.84;66.32;100949.72;1815683;79;25635;-52
2021/01/18 07:57:31;;;;;;;280.32;89.40;;;;;;;-18.79;66.53;100949.84;1815976;79;25663;-55
2021/01/18 08:00:23;;;;;;;283.75;90.92;;;;;;;-18.54;67.28;100953.70;1815998;79;25770;-55
2021/01/18 08:02:58;;;;;;;264.17;90.60;;;;;;;-18.29;67.15;100955.91;1815790;79;25639;-54
2021/01/18 08:05:36;;;;;;;290.23;92.20;;;;;;;-17.98;67.79;100944.73;1887357;76;25440;-54
2021/01/18 08:08:11;;;;;;;288.02;93.62;;;;;;;-17.83;67.48;100946.67;1858217;77;25684;-56
2021/01/18 08:11:06;;;;;;;280.75;87.10;;;;;;;-17.63;67.85;100943.97;1858180;77;25881;-54
2021/01/18 08:13:44;;;;;;;254.82;86.72;;;;;;;-17.36;68.26;100948.90;1858009;77;25609;-58
2021/01/18 08:16:39;;;;;;;257.35;87.82;;;;;;;-16.95;69.10;100957.48;1858119;77;25593;-53
2021/01/18 08:19:26;;;;;;;273.43;88.30;;;;;;;-16.54;69.83;100947.52;1857814;76;25661;-53
2021/01/18 08:22:00;;;;;;;272.20;92.65;;;;;;;-15.94;69.95;100949.35;1857087;77;25633;-55
2021/01/18 08:24:34;;;;;;;279.23;89.17;;;;;;;-15.46;69.62;100952.02;1858070;77;25679;-55
2021/01/18 08:27:07;;;;;;;279.18;88.78;;;;;;;-15.09;69.75;100964.12;1858142;77;25702;-55
2021/01/18 08:29:53;;;;;;;293.33;95.53;;;;;;;-14.66;69.76;100959.75;1858091;77;25747;-53
2021/01/18 08:32:40;;;;;;;290.77;95.07;;;;;;;-14.20;69.93;100963.63;1857947;76;25598;-57
2021/01/18 08:35:21;;;;;;;267.00;86.97;;;;;;;-13.68;69.89;100967.91;1858141;77;26267;-57
2021/01/18 08:38:07;;;;;;;287.10;94.13;;;;;;;-13.40;68.82;100964.98;1858282;77;25772;-57
2021/01/18 08:40:46;;;;;;;295.82;97.78;;;;;;;-13.04;68.55;100960.84;1857878;77;25649;-54
2021/01/18 08:43:15;;;;;;;254.45;81.82;;;;;;;-12.60;68.50;100958.58;1858220;77;25558;-55
2021/01/18 08:45:50;;;;;;;231.80;77.78;;;;;;;-12.43;66.32;100962.23;1858251;77;25715;-56
2021/01/18 08:48:25;;;;;;;232.15;74.17;;;;;;;-12.44;65.91;100968.89;1858307;77;25637;-52
2021/01/18 08:51:07;;;;;;;239.87;80.03;;;;;;;-12.06;66.29;100961.88;1846038;76;25544;-57
2021/01/18 08:53:46;;;;;;;253.25;83.33;;;;;;;-11.82;66.94;100969.63;1817895;78;25580;-56
2021/01/18 08:56:29;;;;;;;;;;;;;;;-11.52;65.82;100974.52;1820600;78;25734;-56
2021/01/18 08:58:57;;;;;;;240.30;79.35;;;;;;;-11.25;66.06;100966.30;1817827;78;25599;-56
2021/01/18 09:01:26;;;;;;;248.78;83.10;;;;;;;-10.85;66.19;100962.36;1817962;78;25606;-56
2021/01/18 09:06:41;;;;;;;259.40;90.03;;;;;;;-10.14;65.41;100970.44;1847919;75;25508;-57
2021/01/18 09:09:09;;;;;;;266.05;93.25;;;;;;;-9.87;65.27;100960.73;1817950;78;25765;-56
2021/01/18 09:11:37;;;;;;;269.43;94.58;;;;;;;-9.69;63.49;100954.56;1758317;77;39080;-55
2021/01/18 09:14:05;;;;;;;259.20;91.95;;;;;;;-9.65;62.69;100951.94;1754678;81;25822;-48
2021/01/18 09:16:33;;;;;;;249.12;88.10;;;;;;;-9.53;63.21;100948.53;1754883;81;25726;-55
2021/01/18 09:19:06;;;;;;;262.45;96.80;;;;;;;-9.30;63.00;100949.55;1755066;81;25589;-53
2021/01/18 09:21:34;;;;;;;264.23;94.65;;;;;;;-8.99;63.36;100946.78;1755273;81;25605;-59
2021/01/18 09:24:08;;;;;;;262.30;94.90;;;;;;;-8.60;63.16;100938.22;1755410;81;26763;-55
2021/01/18 09:26:35;;;;;;;243.27;94.97;;;;;;;-8.19;63.16;100943.32;1755106;81;25384;-54
2021/01/18 09:29:03;;;;;;;266.48;99.17;;;;;;;-7.99;63.07;100941.11;1772815;79;25806;-58
2021/01/18 09:31:32;;;;;;;265.45;101.45;;;;;;;-7.56;62.73;100935.81;1718220;82;25763;-56
2021/01/18 09:34:12;;;;;;;273.45;103.02;;;;;;;-7.35;62.10;100934.36;1711227;83;25768;-54
2021/01/18 09:36:40;;;;;;;271.80;99.77;;;;;;;-7.15;60.92;100939.94;1697244;84;26312;-56
2021/01/18 09:39:20;;;;;;;275.73;108.10;;;;;;;-7.05;60.37;100937.88;1697575;84;26297;-56
2021/01/18 09:41:47;;;;;;;272.73;107.32;;;;;;;-6.79;60.77;100942.77;1698892;83;25783;-49
2021/01/18 09:44:15;;;;;;;281.10;109.65;;;;;;;-6.45;60.62;100935.35;1707321;83;25673;-54
2021/01/18 09:46:45;;;;;;;280.55;108.92;;;;;;;-6.19;59.35;100938.86;1680379;83;25796;-57
2021/01/18 09:49:12;;;;;;;262.63;107.12;;;;;;;-6.29;58.88;100930.42;1708203;82;25729;-52
2021/01/18 09:51:39;;;;;;;261.60;103.97;;;;;;;-5.99;58.62;100931.70;1707951;83;25633;-54
2021/01/18 09:54:10;;;;;;;286.37;110.75;;;;;;;-5.97;57.97;100932.36;1708248;82;25990;-53
2021/01/18 09:56:38;;;;;;;267.82;107.97;;;;;;;-5.85;57.15;100926.38;1708238;82;25717;-55
2021/01/18 09:59:09;;;;;;;269.20;108.85;;;;;;;-5.95;57.14;100929.81;1707990;83;26137;-56
2021/01/18 10:01:40;;;;;;;282.23;117.20;;;;;;;-6.03;55.97;100921.56;1708327;83;25850;-58
2021/01/18 10:04:11;;;;;;;267.62;112.05;;;;;;;-6.17;55.43;100928.16;1708165;83;25565;-57
2021/01/18 10:06:39;;;;;;;269.30;115.37;;;;;;;-6.34;56.16;100929.64;1722512;81;27631;-54
2021/01/18 10:09:12;;;;;;;296.82;122.30;;;;;;;-6.43;56.21;100924.97;1723135;82;25856;-52
2021/01/18 10:11:48;;;;;;;284.35;123.97;;;;;;;-6.52;55.72;100922.60;1661043;84;27797;-56
2021/01/18 10:14:23;;;;;;;288.15;117.05;;;;;;;-6.60;56.06;100920.38;1652027;86;25877;-59
2021/01/18 10:17:07;;;;;;;274.25;116.53;;;;;;;-6.31;57.14;100921.39;1652035;86;25788;-56
2021/01/18 10:19:40;;;;;;;283.62;118.17;;;;;;;-5.88;57.18;100916.72;1651634;86;25602;-56
2021/01/18 10:22:19;;;;;;;294.07;115.80;;;;;;;-5.59;56.85;100920.28;1651506;86;25824;-54
2021/01/18 10:24:57;;;;;;;284.25;117.45;;;;;;;-5.52;55.95;100920.65;1651633;86;25713;-60
2021/01/18 10:27:28;;;;;;;279.87;118.67;;;;;;;-5.29;56.07;100907.30;1651527;86;26713;-58
2021/01/18 10:30:15;;;;;;;286.30;120.82;;;;;;;-4.90;56.22;100909.14;1651857;86;25638;-59
2021/01/18 10:32:48;;;;;;;287.30;115.40;;;;;;;-4.55;56.00;100905.20;1651688;86;25824;-58
2021/01/18 10:38:21;;;;;;;274.23;120.37;;;;;;;-3.67;54.67;100908.55;1885824;76;28967;-57
2021/01/18 10:41:06;;;;;;;286.60;117.95;;;;;;;-3.85;53.77;100916.50;1843589;77;25699;-55
2021/01/18 10:43:34;;;;;;;275.20;115.67;;;;;;;-4.01;52.91;100920.31;1843778;77;25748;-57
2021/01/18 10:46:01;;;;;;;275.15;115.92;;;;;;;-4.08;52.91;100922.13;1853146;77;25797;-55
2021/01/18 10:48:33;;;;;;;276.45;113.75;;;;;;;-3.97;53.33;100920.73;1814924;79;25689;-53
2021/01/18 10:51:02;;;;;;;273.38;116.62;;;;;;;-3.87;52.68;100923.02;1786135;79;25761;-59
2021/01/18 10:53:31;;;;;;;262.98;112.77;;;;;;;-3.74;53.58;100916.97;1786157;80;25765;-58
2021/01/18 10:56:16;;;;;;;268.12;112.72;;;;;;;-3.55;53.07;100918.84;1786471;80;26910;-58
2021/01/18 10:58:55;;;;;;;260.15;111.12;;;;;;;-3.43;53.13;100916.42;1786032;79;25717;-51
2021/01/18 11:01:23;;;;;;;252.93;111.05;;;;;;;-3.28;53.13;100921.03;1814268;78;25744;-65
2021/01/18 11:03:51;;;;;;;269.57;111.05;;;;;;;-3.23;52.51;100913.30;1811600;78;25855;-55
2021/01/18 11:06:21;;;;;;;258.40;110.42;;;;;;;-3.24;52.54;100914.82;1787563;78;26059;-57
2021/01/18 11:08:52;;;;;;;255.45;112.15;;;;;;;-3.26;52.44;100915.02;1787660;79;26302;-58
2021/01/18 11:11:27;;;;;;;243.50;103.40;;;;;;;-3.15;52.36;100908.33;1750438;80;55878;-52
2021/01/18 11:14:04;;;;;;;237.85;106.75;;;;;;;-3.03;51.92;100909.83;1730434;81;25784;-59
2021/01/18 11:16:33;;;;;;;226.20;100.85;;;;;;;-2.82;52.56;100906.98;1730394;82;25728;-57
2021/01/18 11:19:06;;;;;;;241.12;110.30;;;;;;;-2.36;53.18;100905.28;1730855;82;25807;-56
2021/01/18 11:21:34;;;;;;;232.60;96.75;;;;;;;-2.13;52.64;100905.30;1730435;82;27106;-52
2021/01/18 11:24:01;;;;;;;220.82;99.22;;;;;;;-1.84;52.62;100905.80;1734629;82;26570;-54
2021/01/18 11:26:28;;;;;;;192.32;89.95;;;;;;;-1.75;51.75;100896.06;1731252;82;25774;-54
2021/01/18 11:28:55;;;;;;;182.75;79.40;;;;;;;-1.37;51.93;100889.91;1734319;82;25579;-53